메인 페이지
METAR-TAF:

METAR-TAF

공항 :

터스컬루사, 앨라배마, 미국

위도: 33-12-43N, 경도: 087-36-57W, 고도: 52m

현재 날씨관측

예보는 2 시간 3분 전, 00:53시(UTC)에 발표되었습니다.
북북서9kt
온도 7°C
습도 66%
기압 1022 hPa
시정: 16.1km
고도 3300ft 상공 구름 많음
고도 4600ft 상공 흐림

METAR: KTCL 270053Z 34009KT 10SM BKN033 OVC046 07/01 A3017 RMK AO2 RAB34E49 SLP214 P0000 T00670006

시각: 20:56 (02:56 UTC)

예보

예보는 1 시간 22분 전, 01:34시(UTC)에 발표되었습니다.
예보 대상 시간: 27일 02시부터 27일 24시까지 (UTC)
북북서9kt
시정: 10km
고도 3500ft 상공 구름 많음
고도 5000ft 상공 흐림
27일 1500시부터 (UTC)
북서9kt
시정: 10km
고도 25000ft 상공 구름 조금

TAF: KTCL 270134Z 2702/2724 33009KT P6SM BKN035 OVC050 FM271500 31009KT P6SM FEW250

4,000개 이상의 공항 관측 자료 및 예보 (METAR 및 TAF 보고).

지도상에서 검색 가능한 기상관측소가 노란 점과 빨간 점으로 표시되어 있습니다.

기상관측소 명을 보려면 표시 위로 마우스를 이동하세요.

날씨 관측과 예보를 보려면 클릭하세요.

지도 변경 : 확대하려면 엑스 표시가 있는 녹색 버튼, 축소하려면 빼기 표시가 있는 녹색 버튼, 다음 페이지의 지도를 보려면 녹색 화살표를 클릭하세요.


METAR-TAF: